Time;durP1;ratioP1;P1;durP2;ratioP2;P2;SDS_P1;SDS_P2;PMS_P1;PMS_P2;Temp;Humidity;BMP_temperature;BMP_pressure;BME280_temperature;BME280_humidity;BME280_pressure;Samples;Min_cycle;Max_cycle;Signal;HPM_P1;HPM_P2
2022/04/12 00:00:09;;;;;;;;;;;;;;;1.99;73.63;100907.11;84718;1327;25496;-73
2022/04/12 00:02:34;;;;;;;;;;;;;;;1.89;73.85;100908.42;84764;1327;23028;-74
2022/04/12 00:04:41;;;;;;;;;;;;;;;1.76;73.67;100908.86;84737;1327;22846;-74
2022/04/12 00:06:46;;;;;;;;;;;;;;;1.65;73.81;100910.68;84750;1325;22653;-74
2022/04/12 00:08:51;;;;;;;;;;;;;;;1.55;73.71;100910.61;84767;1329;24102;-73
2022/04/12 00:10:55;;;;;;;;;;;;;;;1.45;73.96;100911.40;84700;1327;22884;-72
2022/04/12 00:13:04;;;;;;;;;;;;;;;1.39;74.14;100916.16;84755;1327;24280;-72
2022/04/12 00:15:10;;;;;;;;;;;;;;;1.30;74.12;100914.36;84760;1327;22609;-73
2022/04/12 00:19:40;;;;;;;;;;;;;;;1.11;74.39;100918.66;84736;1324;22583;-72
2022/04/12 00:21:48;;;;;;;;;;;;;;;1.00;74.63;100915.81;84745;1327;22828;-72
2022/04/12 00:23:53;;;;;;;;;;;;;;;0.90;74.62;100911.77;84783;1327;22573;-73
2022/04/12 00:26:00;;;;;;;;;;;;;;;0.81;75.02;100913.56;84715;1329;22585;-73
2022/04/12 00:28:08;;;;;;;;;;;;;;;0.73;74.90;100914.16;84714;1330;26662;-74
2022/04/12 00:30:16;;;;;;;;;;;;;;;0.64;75.07;100915.44;84706;1328;22590;-74
2022/04/12 00:32:21;;;;;;;;;;;;;;;0.56;75.17;100915.68;84723;1329;22666;-74
2022/04/12 00:34:26;;;;;;;;;;;;;;;0.48;75.37;100918.70;84036;1330;1003034;-73
2022/04/12 00:36:34;;;;;;;;;;;;;;;0.42;75.53;100918.44;84713;1330;26634;-73
2022/04/12 00:38:39;;;;;;;;;;;;;;;0.34;75.67;100918.00;84765;1327;22587;-73
2022/04/12 00:40:47;;;;;;;;;;;;;;;0.27;75.74;100920.14;84742;1327;24389;-74
2022/04/12 00:42:53;;;;;;;;;;;;;;;0.19;75.79;100922.27;84743;1326;25417;-74
2022/04/12 00:44:58;;;;;;;;;;;;;;;0.13;76.06;100919.10;84744;1327;22587;-74
2022/04/12 00:47:03;;;;;;;;;;;;;;;0.07;75.87;100915.77;84752;1327;22673;-73
2022/04/12 00:49:07;;;;;;;;;;;;;;;0.04;76.10;100918.45;84770;1325;22736;-73
2022/04/12 00:51:15;;;;;;;;;;;;;;;0.02;76.10;100921.19;84779;1326;22589;-73
2022/04/12 00:53:19;;;;;;;;;;;;;;;-0.03;76.20;100914.79;84730;1327;22609;-74
2022/04/12 00:55:24;;;;;;;;;;;;;;;-0.07;76.34;100916.45;84738;1329;22663;-74
2022/04/12 00:57:29;;;;;;;;;;;;;;;-0.09;76.61;100916.92;84715;1328;22579;-73
2022/04/12 00:59:34;;;;;;;;;;;;;;;-0.08;76.72;100920.03;84697;1330;22710;-72
2022/04/12 01:01:39;;;;;;;;;;;;;;;-0.09;76.58;100919.68;84669;1327;22599;-72
2022/04/12 01:03:43;;;;;;;;;;;;;;;-0.06;76.98;100919.52;84784;1327;22640;-74
2022/04/12 01:05:48;;;;;;;;;;;;;;;-0.05;76.92;100923.85;84764;1327;22567;-74
2022/04/12 01:07:53;;;;;;;;;;;;;;;-0.05;76.79;100921.61;84749;1327;25450;-74
2022/04/12 01:10:00;;;;;;;;;;;;;;;-0.06;76.77;100921.92;84747;1327;22899;-74
2022/04/12 01:12:09;;;;;;;;;;;;;;;-0.08;76.51;100924.48;84704;1329;25305;-73
2022/04/12 01:14:14;;;;;;;;;;;;;;;-0.14;76.39;100926.80;84774;1328;22573;-73
2022/04/12 01:16:19;;;;;;;;;;;;;;;-0.19;76.18;100926.36;84743;1327;24258;-73
2022/04/12 01:18:24;;;;;;;;;;;;;;;-0.27;76.31;100926.09;84741;1327;22580;-74
2022/04/12 01:20:32;;;;;;;;;;;;;;;-0.35;76.13;100926.14;84760;1327;24235;-73
2022/04/12 01:22:39;;;;;;;;;;;;;;;-0.44;76.08;100928.91;84756;1327;22581;-74
2022/04/12 01:24:44;;;;;;;;;;;;;;;-0.52;76.31;100933.06;84773;1329;22579;-74
2022/04/12 01:26:48;;;;;;;;;;;;;;;-0.59;76.38;100932.61;84575;1329;22599;-73
2022/04/12 01:28:53;;;;;;;;;;;;;;;-0.67;76.51;100929.23;84707;1328;22574;-74
2022/04/12 01:31:01;;;;;;;;;;;;;;;-0.72;76.59;100931.53;84735;1327;23863;-74
2022/04/12 01:33:06;;;;;;;;;;;;;;;-0.80;76.58;100931.23;84783;1327;22572;-73
2022/04/12 01:35:13;;;;;;;;;;;;;;;-0.87;76.92;100935.05;84740;1327;23076;-73
2022/04/12 01:37:18;;;;;;;;;;;;;;;-0.94;76.85;100936.98;84735;1330;22596;-73
2022/04/12 01:39:26;;;;;;;;;;;;;;;-1.03;76.72;100938.02;84642;1330;22752;-73
2022/04/12 01:41:31;;;;;;;;;;;;;;;-1.10;76.90;100942.01;84741;1327;23910;-72
2022/04/12 01:43:38;;;;;;;;;;;;;;;-1.16;76.95;100939.66;84745;1325;22573;-73
2022/04/12 01:45:46;;;;;;;;;;;;;;;-1.21;77.15;100940.59;84728;1327;22639;-73
2022/04/12 01:47:55;;;;;;;;;;;;;;;-1.27;77.34;100942.36;84745;1327;23891;-73
2022/04/12 01:50:00;;;;;;;;;;;;;;;-1.34;77.41;100944.30;84064;1327;1002939;-73
2022/04/12 01:52:05;;;;;;;;;;;;;;;-1.42;77.58;100942.42;84653;1324;22984;-73
2022/04/12 01:54:10;;;;;;;;;;;;;;;-1.48;77.53;100944.70;83959;1331;1003073;-73
2022/04/12 01:56:18;;;;;;;;;;;;;;;-1.52;77.81;100953.84;84766;1324;22725;-74
2022/04/12 01:58:22;;;;;;;;;;;;;;;-1.56;78.12;100955.14;84767;1328;22670;-73
2022/04/12 02:00:27;;;;;;;;;;;;;;;-1.57;78.48;100954.61;84762;1327;22700;-72
2022/04/12 02:02:32;;;;;;;;;;;;;;;-1.54;78.78;100953.80;84726;1324;23049;-72
2022/04/12 02:04:37;;;;;;;;;;;;;;;-1.53;78.61;100956.72;84758;1327;22578;-73
2022/04/12 02:06:44;;;;;;;;;;;;;;;-1.56;78.46;100956.86;84731;1327;25466;-73
2022/04/12 02:08:49;;;;;;;;;;;;;;;-1.57;78.46;100958.89;84756;1327;22573;-73
2022/04/12 02:10:54;;;;;;;;;;;;;;;-1.57;78.58;100961.79;84760;1327;25268;-72
2022/04/12 02:12:59;;;;;;;;;;;;;;;-1.57;78.63;100965.06;84144;1324;857333;-72
2022/04/12 02:15:04;;;;;;;;;;;;;;;-1.55;78.78;100962.70;84756;1328;22572;-71
2022/04/12 02:17:11;;;;;;;;;;;;;;;-1.50;78.96;100959.70;84742;1330;22580;-72
2022/04/12 02:19:16;;;;;;;;;;;;;;;-1.48;78.87;100958.38;84306;1327;1003940;-73
2022/04/12 02:21:21;;;;;;;;;;;;;;;-1.48;78.85;100962.14;84741;1324;22683;-73
2022/04/12 02:23:28;;;;;;;;;;;;;;;-1.45;79.16;100961.86;84734;1327;24069;-74
2022/04/12 02:25:36;;;;;;;;;;;;;;;-1.45;79.04;100960.16;84752;1330;22654;-74
2022/04/12 02:27:40;;;;;;;;;;;;;;;-1.46;78.74;100957.23;84733;1330;22596;-74
2022/04/12 02:29:46;;;;;;;;;;;;;;;-1.48;78.53;100964.36;84727;1327;22709;-72
2022/04/12 02:31:50;;;;;;;;;;;;;;;-1.50;78.62;100964.14;84751;1327;22597;-73
2022/04/12 02:33:58;;;;;;;;;;;;;;;-1.52;78.74;100965.66;84678;1329;22566;-72
2022/04/12 02:36:03;;;;;;;;;;;;;;;-1.56;78.69;100971.05;84727;1330;22584;-72
2022/04/12 02:38:08;;;;;;;;;;;;;;;-1.60;78.54;100972.69;84653;1330;22586;-73
2022/04/12 02:40:13;;;;;;;;;;;;;;;-1.64;78.71;100973.27;84746;1327;22591;-73
2022/04/12 02:42:17;;;;;;;;;;;;;;;-1.69;78.68;100975.74;84778;1327;22642;-74
2022/04/12 02:44:22;;;;;;;;;;;;;;;-1.74;78.76;100973.40;84742;1327;23890;-72
2022/04/12 02:46:26;;;;;;;;;;;;;;;-1.79;79.00;100976.04;84746;1327;22595;-72
2022/04/12 02:48:32;;;;;;;;;;;;;;;-1.84;78.73;100981.23;84028;1327;1003793;-72
2022/04/12 02:50:38;;;;;;;;;;;;;;;-1.90;79.05;100980.74;84795;1327;22664;-71
2022/04/12 02:52:45;;;;;;;;;;;;;;;-1.95;79.07;100981.67;84761;1327;22593;-72
2022/04/12 02:54:50;;;;;;;;;;;;;;;-1.99;79.21;100980.02;84746;1327;22617;-72
2022/04/12 02:56:55;;;;;;;;;;;;;;;-2.02;79.34;100984.23;84813;1327;22567;-73
2022/04/12 02:58:59;;;;;;;;;;;;;;;-2.05;79.14;100985.19;84786;1326;22573;-73
2022/04/12 03:01:04;;;;;;;;;;;;;;;-2.11;79.14;100983.19;84832;1327;22566;-73
2022/04/12 03:03:09;;;;;;;;;;;;;;;-2.13;79.45;100986.53;84784;1324;22577;-75
2022/04/12 03:05:13;;;;;;;;;;;;;;;-2.17;79.54;100983.23;84786;1327;22603;-73
2022/04/12 03:07:18;;;;;;;;;;;;;;;-2.20;79.53;100985.36;84779;1326;24254;-72
2022/04/12 03:09:22;;;;;;;;;;;;;;;-2.23;79.65;100989.04;84721;1327;26493;-74
2022/04/12 03:11:27;;;;;;;;;;;;;;;-2.25;79.89;100989.34;84804;1325;22684;-73
2022/04/12 03:13:32;;;;;;;;;;;;;;;-2.28;79.75;100990.46;84823;1324;23297;-73
2022/04/12 03:15:40;;;;;;;;;;;;;;;-2.32;79.70;100991.91;84745;1327;24262;-72
2022/04/12 03:17:46;;;;;;;;;;;;;;;-2.36;79.97;100995.08;84709;1325;22735;-73
2022/04/12 03:19:51;;;;;;;;;;;;;;;-2.38;79.98;100999.45;84754;1327;22608;-74
2022/04/12 03:21:56;;;;;;;;;;;;;;;-2.39;80.23;101000.10;84773;1327;22589;-73
2022/04/12 03:24:01;;;;;;;;;;;;;;;-2.41;80.18;101001.25;84746;1327;22584;-74
2022/04/12 03:26:06;;;;;;;;;;;;;;;-2.45;80.07;101000.99;84716;1331;22580;-74
2022/04/12 03:28:10;;;;;;;;;;;;;;;-2.47;80.28;101001.11;84808;1327;25445;-74
2022/04/12 03:30:15;;;;;;;;;;;;;;;-2.51;80.20;101004.94;84747;1327;22725;-74
2022/04/12 03:32:20;;;;;;;;;;;;;;;-2.53;80.18;101002.14;84789;1327;22587;-73
2022/04/12 03:34:27;;;;;;;;;;;;;;;-2.55;80.23;101006.88;84813;1326;22567;-74
2022/04/12 03:36:35;;;;;;;;;;;;;;;-2.58;80.41;101006.46;84706;1327;22702;-73
2022/04/12 03:38:48;;;;;;;;;;;;;;;-2.60;80.50;101004.73;84737;1328;25274;-72
2022/04/12 03:40:52;;;;;;;;;;;;;;;-2.60;80.68;101002.84;84766;1327;25417;-72
2022/04/12 03:42:59;;;;;;;;;;;;;;;-2.59;80.66;101002.86;84749;1330;24197;-72
2022/04/12 03:45:04;;;;;;;;;;;;;;;-2.59;80.59;101004.23;84733;1327;22865;-73
2022/04/12 03:47:09;;;;;;;;;;;;;;;-2.58;80.53;101004.92;84752;1324;22668;-73
2022/04/12 03:49:13;;;;;;;;;;;;;;;-2.55;80.77;101003.46;84758;1327;22604;-73
2022/04/12 03:51:18;;;;;;;;;;;;;;;-2.53;80.80;101003.68;84659;1330;25431;-74
2022/04/12 03:53:25;;;;;;;;;;;;;;;-2.50;80.91;101006.17;84771;1327;24035;-73
2022/04/12 03:55:35;;;;;;;;;;;;;;;-2.46;80.89;101009.34;84765;1327;22647;-72
2022/04/12 03:57:40;;;;;;;;;;;;;;;-2.41;80.91;101007.27;84736;1327;22589;-72
2022/04/12 03:59:44;;;;;;;;;;;;;;;-2.37;80.86;101005.97;84766;1327;23006;-72
2022/04/12 04:01:50;;;;;;;;;;;;;;;-2.35;80.91;101012.02;84770;1324;25431;-72
2022/04/12 04:03:54;;;;;;;;;;;;;;;-2.30;80.99;101014.35;84765;1327;22921;-72
2022/04/12 04:06:00;;;;;;;;;;;;;;;-2.25;81.06;101016.34;84770;1327;22589;-73
2022/04/12 04:08:05;;;;;;;;;;;;;;;-2.21;81.05;101021.75;84753;1327;22624;-72
2022/04/12 04:10:10;;;;;;;;;;;;;;;-2.17;80.92;101024.58;84776;1327;22581;-72
2022/04/12 04:12:14;;;;;;;;;;;;;;;-2.13;80.89;101027.58;83282;1325;1003883;-72
2022/04/12 04:14:19;;;;;;;;;;;;;;;-2.09;80.93;101024.92;84790;1330;22577;-72
2022/04/12 04:16:27;;;;;;;;;;;;;;;-2.06;80.91;101027.58;84791;1322;23279;-73
2022/04/12 04:18:31;;;;;;;;;;;;;;;-2.04;80.86;101025.55;84665;1330;22727;-73
2022/04/12 04:20:36;;;;;;;;;;;;;;;-2.02;80.97;101029.54;84749;1327;24242;-73
2022/04/12 04:22:41;;;;;;;;;;;;;;;-1.97;81.01;101031.88;84788;1325;22662;-73
2022/04/12 04:24:46;;;;;;;;;;;;;;;-1.89;81.01;101032.23;84049;1328;1003041;-73
2022/04/12 04:26:55;;;;;;;;;;;;;;;-1.58;81.43;101033.11;84771;1327;25321;-73
2022/04/12 04:29:01;;;;;;;;;;;;;;;-0.97;82.11;101029.40;84797;1327;22583;-73
2022/04/12 04:31:09;;;;;;;;;;;;;;;-0.19;83.68;101023.07;84771;1329;22628;-73
2022/04/12 04:33:17;;;;;;;;;;;;;;;0.45;82.58;101024.04;84801;1327;24437;-73
2022/04/12 04:35:22;;;;;;;;;;;;;;;0.54;80.35;101022.45;84804;1327;23099;-74
2022/04/12 04:37:33;;;;;;;;;;;;;;;1.01;80.10;101023.71;84684;1329;22583;-75
2022/04/12 04:39:40;;;;;;;;;;;;;;;1.54;79.10;101017.38;84777;1327;25436;-75
2022/04/12 04:41:45;;;;;;;;;;;;;;;1.95;78.35;101020.83;84777;1327;22582;-75
2022/04/12 04:43:53;;;;;;;;;;;;;;;2.58;78.32;101021.39;84770;1325;22586;-73
2022/04/12 04:45:58;;;;;;;;;;;;;;;3.42;79.42;101018.21;84711;1330;24150;-73
2022/04/12 04:48:03;;;;;;;;;;;;;;;4.23;78.57;101015.96;84771;1327;22609;-73
2022/04/12 04:50:09;;;;;;;;;;;;;;;5.05;77.44;101013.45;84771;1327;22920;-74
2022/04/12 04:52:14;;;;;;;;;;;;;;;5.87;75.83;101012.91;84772;1327;22603;-73
2022/04/12 04:54:22;;;;;;;;;;;;;;;6.60;72.77;101014.12;84765;1326;22572;-73
2022/04/12 04:56:27;;;;;;;;;;;;;;;7.11;70.32;101014.17;84775;1327;22606;-74
2022/04/12 04:58:31;;;;;;;;;;;;;;;7.42;68.34;101007.67;84798;1327;24203;-75
2022/04/12 05:00:36;;;;;;;;;;;;;;;7.51;66.57;101006.99;84768;1326;25495;-76
2022/04/12 05:02:40;;;;;;;;;;;;;;;7.51;65.29;101011.01;84762;1327;22577;-77
2022/04/12 05:04:48;;;;;;;;;;;;;;;7.63;64.66;101013.09;84767;1328;25397;-75
2022/04/12 05:06:57;;;;;;;;;;;;;;;7.62;64.27;101013.61;84766;1327;22644;-74
2022/04/12 05:09:02;;;;;;;;;;;;;;;7.61;63.63;101016.23;84795;1327;22586;-73
2022/04/12 05:11:06;;;;;;;;;;;;;;;7.58;63.41;101018.20;84753;1327;25386;-73
2022/04/12 05:13:10;;;;;;;;;;;;;;;7.41;63.10;101024.68;84699;1327;22877;-79
2022/04/12 05:15:15;;;;;;;;;;;;;;;7.50;63.18;101027.17;84796;1327;22960;-77
2022/04/12 05:17:25;;;;;;;;;;;;;;;7.58;62.59;101026.52;84776;1330;22680;-77
2022/04/12 05:19:30;;;;;;;;;;;;;;;7.70;62.75;101032.58;84787;1327;22591;-77
2022/04/12 05:21:37;;;;;;;;;;;;;;;7.86;62.54;101037.73;84775;1327;22955;-77
2022/04/12 05:23:45;;;;;;;;;;;;;;;8.16;62.59;101043.11;84754;1327;23821;-78
2022/04/12 05:25:52;;;;;;;;;;;;;;;8.94;62.74;101042.72;84754;1324;24319;-78
2022/04/12 05:27:58;;;;;;;;;;;;;;;9.85;60.89;101042.41;84765;1327;22823;-77
2022/04/12 05:30:03;;;;;;;;;;;;;;;10.77;59.90;101047.05;84790;1330;25369;-73
2022/04/12 05:32:09;;;;;;;;;;;;;;;11.79;56.61;101051.49;84766;1327;25129;-74
2022/04/12 05:34:14;;;;;;;;;;;;;;;12.57;54.29;101044.83;84798;1327;22578;-73
2022/04/12 05:36:18;;;;;;;;;;;;;;;13.08;52.54;101048.43;84759;1327;22584;-73
2022/04/12 05:38:29;;;;;;;;;;;;;;;13.67;49.61;101049.14;84749;1327;25932;-77
2022/04/12 05:40:37;;;;;;;;;;;;;;;14.41;47.66;101054.14;84773;1328;22642;-77
2022/04/12 05:42:49;;;;;;;;;;;;;;;15.00;46.63;101055.41;84761;1327;25030;-78
2022/04/12 05:44:57;;;;;;;;;;;;;;;15.37;44.53;101055.80;84776;1327;22583;-74
2022/04/12 05:47:02;;;;;;;;;;;;;;;15.70;43.70;101057.23;84767;1327;22577;-75
2022/04/12 05:49:07;;;;;;;;;;;;;;;16.17;43.60;101055.48;84767;1327;23340;-77
2022/04/12 05:51:11;;;;;;;;;;;;;;;16.27;41.96;101054.95;84756;1329;22617;-78
2022/04/12 05:53:16;;;;;;;;;;;;;;;16.53;42.22;101060.49;84740;1327;24301;-74
2022/04/12 05:55:22;;;;;;;;;;;;;;;17.00;42.00;101057.91;84688;1330;22692;-74
2022/04/12 05:57:26;;;;;;;;;;;;;;;17.39;40.20;101063.35;84778;1327;22564;-73
2022/04/12 05:59:31;;;;;;;;;;;;;;;17.60;40.23;101067.96;84729;1327;26514;-75
2022/04/12 06:01:36;;;;;;;;;;;;;;;17.95;39.69;101068.67;84761;1327;24246;-74
2022/04/12 06:03:40;;;;;;;;;;;;;;;18.36;38.38;101068.52;84791;1326;22692;-74
2022/04/12 06:05:45;;;;;;;;;;;;;;;18.76;37.81;101070.59;84766;1327;22604;-74
2022/04/12 06:07:50;;;;;;;;;;;;;;;19.03;36.64;101072.46;84761;1327;25300;-74
2022/04/12 06:09:54;;;;;;;;;;;;;;;19.42;36.11;101074.44;84754;1327;22601;-79
2022/04/12 06:12:02;;;;;;;;;;;;;;;19.81;35.51;101072.96;84778;1327;22662;-78
2022/04/12 06:14:07;;;;;;;;;;;;;;;20.20;35.35;101072.89;84790;1327;22655;-74
2022/04/12 06:16:11;;;;;;;;;;;;;;;20.59;34.85;101074.20;84764;1328;22877;-74
2022/04/12 06:18:15;;;;;;;;;;;;;;;20.88;33.31;101074.95;84780;1327;25514;-75
2022/04/12 06:20:21;;;;;;;;;;;;;;;21.19;33.18;101071.92;84759;1327;22577;-76
2022/04/12 06:22:24;;;;;;;;;;;;;;;21.32;32.44;101074.17;84785;1328;22573;-75
2022/04/12 06:24:28;;;;;;;;;;;;;;;21.46;32.05;101071.61;84771;1327;22595;-75
2022/04/12 06:26:31;;;;;;;;;;;;;;;21.48;31.30;101074.64;84702;1330;22978;-75
2022/04/12 06:28:35;;;;;;;;;;;;;;;21.63;31.18;101071.73;84785;1327;22570;-74
2022/04/12 06:30:40;;;;;;;;;;;;;;;21.82;30.69;101073.91;84739;1327;22947;-74
2022/04/12 06:32:49;;;;;;;;;;;;;;;22.10;30.51;101076.95;84764;1327;22576;-75
2022/04/12 06:34:59;;;;;;;;;;;;;;;22.48;30.16;101078.52;84750;1327;24396;-79
2022/04/12 06:37:08;;;;;;;;;;;;;;;22.79;29.06;101082.21;84770;1329;22679;-78
2022/04/12 06:39:13;;;;;;;;;;;;;;;22.95;28.17;101084.33;84778;1330;22600;-75
2022/04/12 06:41:18;;;;;;;;;;;;;;;23.24;27.64;101081.38;84742;1327;25946;-74
2022/04/12 06:43:23;;;;;;;;;;;;;;;23.32;27.46;101081.04;84794;1327;22557;-79
2022/04/12 06:45:28;;;;;;;;;;;;;;;23.45;27.28;101082.55;84776;1327;22542;-78
2022/04/12 06:47:33;;;;;;;;;;;;;;;23.76;26.96;101085.86;84744;1330;24147;-79
2022/04/12 06:49:38;;;;;;;;;;;;;;;23.98;26.50;101081.90;84761;1327;22636;-79
2022/04/12 06:51:46;;;;;;;;;;;;;;;24.09;26.27;101083.31;84790;1325;22956;-78
2022/04/12 06:53:51;;;;;;;;;;;;;;;24.02;26.15;101087.11;84778;1327;22576;-77
2022/04/12 06:55:56;;;;;;;;;;;;;;;23.99;26.00;101090.07;84763;1326;22651;-78
2022/04/12 06:58:01;;;;;;;;;;;;;;;24.10;25.25;101086.80;84743;1326;23922;-75
2022/04/12 07:00:08;;;;;;;;;;;;;;;24.19;25.49;101089.27;84766;1328;24182;-75
2022/04/12 07:02:13;;;;;;;;;;;;;;;24.18;25.54;101090.75;84752;1328;24255;-76
2022/04/12 07:04:17;;;;;;;;;;;;;;;24.43;25.19;101091.14;84767;1327;24259;-76
2022/04/12 07:06:23;;;;;;;;;;;;;;;24.68;24.81;101091.75;84741;1328;23033;-75
2022/04/12 07:08:27;;;;;;;;;;;;;;;24.93;24.74;101094.35;84757;1330;24390;-75
2022/04/12 07:10:35;;;;;;;;;;;;;;;25.28;24.79;101097.05;84724;1325;22593;-75
2022/04/12 07:12:40;;;;;;;;;;;;;;;25.43;23.70;101095.19;84761;1327;22558;-75
2022/04/12 07:14:45;;;;;;;;;;;;;;;25.43;23.57;101095.33;84786;1327;22576;-75
2022/04/12 07:16:50;;;;;;;;;;;;;;;25.62;23.69;101094.90;84788;1327;23958;-75
2022/04/12 07:18:58;;;;;;;;;;;;;;;25.89;23.03;101097.15;84778;1327;22614;-79
2022/04/12 07:21:03;;;;;;;;;;;;;;;25.99;22.54;101095.89;84767;1327;26529;-80
2022/04/12 07:23:08;;;;;;;;;;;;;;;25.75;21.93;101101.17;84772;1330;22642;-75
2022/04/12 07:25:13;;;;;;;;;;;;;;;25.48;22.58;101099.23;84777;1327;24245;-74
2022/04/12 07:27:18;;;;;;;;;;;;;;;25.35;22.85;101101.90;84762;1330;24972;-75
2022/04/12 07:29:23;;;;;;;;;;;;;;;25.56;23.27;101100.06;84759;1330;22567;-79
2022/04/12 07:31:28;;;;;;;;;;;;;;;26.01;23.04;101101.90;84760;1326;23197;-81
2022/04/12 07:33:33;;;;;;;;;;;;;;;26.32;22.69;101099.25;84666;1330;22708;-75
2022/04/12 07:35:41;;;;;;;;;;;;;;;26.55;21.75;101101.61;84778;1327;22619;-78
2022/04/12 07:37:46;;;;;;;;;;;;;;;26.72;21.73;101098.73;84766;1327;22673;-76
2022/04/12 07:39:51;;;;;;;;;;;;;;;26.85;21.37;101106.14;84783;1329;22570;-76
2022/04/12 07:41:55;;;;;;;;;;;;;;;27.00;21.58;101109.33;84741;1327;22598;-78
2022/04/12 07:44:00;;;;;;;;;;;;;;;26.96;20.85;101106.27;84742;1327;22629;-80
2022/04/12 07:46:08;;;;;;;;;;;;;;;26.74;20.73;101111.39;84781;1327;25565;-81
2022/04/12 07:48:13;;;;;;;;;;;;;;;26.75;21.32;101109.21;84778;1327;22586;-78
2022/04/12 07:50:21;;;;;;;;;;;;;;;27.04;20.73;101114.15;84772;1329;22826;-80
2022/04/12 07:52:29;;;;;;;;;;;;;;;27.16;20.78;101115.67;84780;1327;22593;-81
2022/04/12 07:54:33;;;;;;;;;;;;;;;27.24;20.23;101116.66;84778;1327;22630;-77
2022/04/12 07:56:39;;;;;;;;;;;;;;;27.11;20.50;101120.11;84751;1327;25454;-77
2022/04/12 07:58:43;;;;;;;;;;;;;;;27.45;20.54;101122.36;84764;1327;22583;-81
2022/04/12 08:00:48;;;;;;;;;;;;;;;27.67;19.65;101117.88;84764;1327;22573;-79
2022/04/12 08:02:55;;;;;;;;;;;;;;;27.79;19.62;101116.88;84750;1327;24241;-83
2022/04/12 08:04:59;;;;;;;;;;;;;;;27.91;19.68;101116.25;84784;1327;23883;-80
2022/04/12 08:07:05;;;;;;;;;;;;;;;28.17;18.74;101114.49;84782;1330;22588;-81
2022/04/12 08:09:11;;;;;;;;;;;;;;;27.97;18.12;101111.34;84761;1327;22607;-79
2022/04/12 08:11:16;;;;;;;;;;;;;;;27.03;18.60;101115.81;84742;1327;22593;-80
2022/04/12 08:13:22;;;;;;;;;;;;;;;25.72;19.39;101120.65;84800;1327;24399;-78
2022/04/12 08:15:27;;;;;;;;;;;;;;;24.36;20.15;101121.88;84768;1327;22564;-80
2022/04/12 08:17:35;;;;;;;;;;;;;;;23.31;20.79;101126.85;84796;1325;22634;-81
2022/04/12 08:19:44;;;;;;;;;;;;;;;22.74;22.41;101119.92;84792;1327;22924;-83
2022/04/12 08:21:49;;;;;;;;;;;;;;;22.83;21.76;101121.23;84783;1330;22590;-76
2022/04/12 08:23:54;;;;;;;;;;;;;;;22.08;22.17;101126.00;84783;1327;22575;-80
2022/04/12 08:25:59;;;;;;;;;;;;;;;21.69;23.16;101128.69;84739;1327;22592;-79
2022/04/12 08:28:04;;;;;;;;;;;;;;;21.27;23.27;101133.63;84772;1327;25466;-76
2022/04/12 08:30:12;;;;;;;;;;;;;;;20.73;23.80;101136.30;84666;1329;22601;-74
2022/04/12 08:32:22;;;;;;;;;;;;;;;21.11;24.99;101134.40;84751;1327;22575;-74
2022/04/12 08:34:34;;;;;;;;;;;;;;;22.01;23.61;101135.05;84717;1328;22621;-74
2022/04/12 08:36:41;;;;;;;;;;;;;;;22.68;22.79;101132.01;84751;1325;22589;-77
2022/04/12 08:38:54;;;;;;;;;;;;;;;22.91;21.62;101131.64;84787;1327;22593;-72
2022/04/12 08:41:01;;;;;;;;;;;;;;;22.95;21.62;101132.42;84793;1328;25240;-75
2022/04/12 08:43:11;;;;;;;;;;;;;;;22.12;21.33;101132.84;84765;1327;22598;-74
2022/04/12 08:45:17;;;;;;;;;;;;;;;21.35;22.22;101135.92;84811;1327;24235;-75
2022/04/12 08:47:25;;;;;;;;;;;;;;;20.61;22.73;101135.69;84762;1330;22607;-75
2022/04/12 08:49:38;;;;;;;;;;;;;;;19.79;23.12;101135.42;84781;1327;22553;-74
2022/04/12 08:51:48;;;;;;;;;;;;;;;19.11;23.78;101139.71;84608;1330;24247;-78
2022/04/12 08:53:56;;;;;;;;;;;;;;;19.45;25.50;101131.71;84780;1327;25508;-79
2022/04/12 08:56:01;;;;;;;;;;;;;;;20.31;25.39;101125.09;84779;1327;22601;-75
2022/04/12 08:58:09;;;;;;;;;;;;;;;21.38;24.98;101126.11;84769;1325;24333;-74
2022/04/12 09:00:16;;;;;;;;;;;;;;;21.72;23.20;101128.67;84621;1331;27426;-74
2022/04/12 09:02:23;;;;;;;;;;;;;;;21.12;23.28;101130.95;84762;1327;22580;-76
2022/04/12 09:04:33;;;;;;;;;;;;;;;20.35;23.21;101133.35;84742;1327;22623;-85
2022/04/12 09:06:51;;;;;;;;;;;;;;;20.09;24.83;101134.91;84711;1329;22577;-86
2022/04/12 09:09:05;;;;;;;;;;;;;;;21.02;25.06;101131.51;84714;1328;25348;-77
2022/04/12 09:11:14;;;;;;;;;;;;;;;22.05;24.11;101126.73;84772;1327;22592;-76
2022/04/12 09:13:25;;;;;;;;;;;;;;;22.88;22.95;101130.10;84733;1324;22701;-86
2022/04/12 09:15:33;;;;;;;;;;;;;;;23.65;22.49;101127.55;84806;1324;25285;-75
2022/04/12 09:17:41;;;;;;;;;;;;;;;24.41;21.09;101124.52;84783;1325;22590;-83
2022/04/12 09:19:52;;;;;;;;;;;;;;;24.61;20.24;101121.38;84776;1327;22912;-77
2022/04/12 09:22:06;;;;;;;;;;;;;;;24.59;20.54;101114.80;84803;1327;22573;-77
2022/04/12 09:24:21;;;;;;;;;;;;;;;24.05;20.58;101119.98;84766;1330;22684;-80
2022/04/12 09:26:36;;;;;;;;;;;;;;;23.37;20.85;101123.19;84779;1330;22583;-79
2022/04/12 09:28:49;;;;;;;;;;;;;;;23.01;20.93;101122.34;84760;1326;22586;-78
2022/04/12 09:31:14;;;;;;;;;;;;;;;23.32;21.77;101120.79;84779;1327;22905;-79
2022/04/12 09:33:38;;;;;;;;;;;;;;;24.07;21.35;101115.93;84753;1327;22859;-79
2022/04/12 09:35:45;;;;;;;;;;;;;;;24.61;20.72;101109.94;84733;1330;22594;-76
2022/04/12 09:37:51;;;;;;;;;;;;;;;24.62;20.13;101115.75;84612;1329;25607;-75
2022/04/12 09:40:07;;;;;;;;;;;;;;;24.29;19.77;101116.42;84609;1330;22800;-75
2022/04/12 09:42:14;;;;;;;;;;;;;;;23.51;19.81;101116.36;84637;1330;23894;-75
2022/04/12 09:44:19;;;;;;;;;;;;;;;22.41;20.25;101116.78;84757;1327;24381;-76
2022/04/12 09:46:25;;;;;;;;;;;;;;;21.31;20.95;101122.33;84761;1327;25431;-76
2022/04/12 09:48:34;;;;;;;;;;;;;;;20.28;21.31;101121.40;84671;1331;22579;-80
2022/04/12 09:50:46;;;;;;;;;;;;;;;19.35;22.25;101126.89;84683;1330;24275;-79
2022/04/12 09:52:55;;;;;;;;;;;;;;;19.10;23.64;101125.79;84737;1327;22581;-79
2022/04/12 09:55:01;;;;;;;;;;;;;;;19.16;23.69;101123.64;84743;1330;22591;-79
2022/04/12 09:57:07;;;;;;;;;;;;;;;19.28;24.00;101124.16;84597;1329;23166;-80
2022/04/12 09:59:11;;;;;;;;;;;;;;;19.35;23.18;101120.70;84746;1327;22761;-74
2022/04/12 10:01:17;;;;;;;;;;;;;;;19.12;23.18;101118.06;84765;1328;22566;-73
2022/04/12 10:03:22;;;;;;;;;;;;;;;19.00;23.23;101118.80;84764;1327;26522;-77
2022/04/12 10:05:26;;;;;;;;;;;;;;;18.89;24.08;101122.80;84773;1327;22582;-78
2022/04/12 10:07:31;;;;;;;;;;;;;;;18.49;24.97;101122.21;84758;1327;26438;-78
2022/04/12 10:09:39;;;;;;;;;;;;;;;17.90;25.77;101124.01;84800;1327;22822;-75
2022/04/12 10:11:44;;;;;;;;;;;;;;;17.30;26.38;101126.23;84753;1327;24317;-75
2022/04/12 10:13:49;;;;;;;;;;;;;;;16.80;26.97;101123.62;83873;1327;1326070;-74
2022/04/12 10:15:59;;;;;;;;;;;;;;;16.49;27.27;101122.88;84762;1327;22801;-74
2022/04/12 10:18:04;;;;;;;;;;;;;;;16.33;27.45;101116.49;84783;1324;24292;-73
2022/04/12 10:20:10;;;;;;;;;;;;;;;16.25;27.22;101115.27;84780;1331;25466;-75
2022/04/12 10:22:17;;;;;;;;;;;;;;;16.22;27.67;101111.71;84750;1327;22820;-74
2022/04/12 10:24:22;;;;;;;;;;;;;;;16.41;27.27;101102.83;84795;1327;22611;-74
2022/04/12 10:26:33;;;;;;;;;;;;;;;16.58;27.47;101100.23;84747;1331;22670;-75
2022/04/12 10:28:42;;;;;;;;;;;;;;;16.82;27.29;101096.36;84772;1327;22733;-78
2022/04/12 10:30:47;;;;;;;;;;;;;;;17.01;27.04;101093.80;84762;1327;22584;-78
2022/04/12 10:33:01;;;;;;;;;;;;;;;17.19;27.34;101092.48;84772;1327;22635;-77
2022/04/12 10:35:09;;;;;;;;;;;;;;;17.26;26.82;101089.27;84767;1327;23920;-78
2022/04/12 10:37:14;;;;;;;;;;;;;;;17.09;26.89;101095.65;84664;1330;22570;-79
2022/04/12 10:39:20;;;;;;;;;;;;;;;16.77;26.68;101103.84;84756;1327;25971;-74
2022/04/12 10:41:30;;;;;;;;;;;;;;;16.34;26.83;101102.66;84777;1330;24125;-74
2022/04/12 10:43:38;;;;;;;;;;;;;;;16.10;27.27;101105.98;84685;1329;25252;-76
2022/04/12 10:45:50;;;;;;;;;;;;;;;16.08;27.22;101108.22;84771;1327;22698;-74
2022/04/12 10:47:57;;;;;;;;;;;;;;;16.11;27.70;101108.41;84737;1327;23964;-76
2022/04/12 10:50:03;;;;;;;;;;;;;;;16.19;26.94;101106.43;84771;1327;24000;-73
2022/04/12 10:52:09;;;;;;;;;;;;;;;16.15;26.59;101103.09;84751;1330;22670;-74